createdAt,value
2019-02-27T00:02:24.307Z,18.05
2019-02-27T00:04:52.666Z,22.17
2019-02-27T00:07:21.502Z,18.02
2019-02-27T00:09:49.765Z,24.50
2019-02-27T00:12:19.342Z,21.27
2019-02-27T00:14:48.894Z,19.37
2019-02-27T00:17:18.099Z,17.20
2019-02-27T00:19:47.165Z,17.07
2019-02-27T00:22:17.636Z,15.88
2019-02-27T00:24:45.667Z,19.65
2019-02-27T00:27:14.799Z,21.07
2019-02-27T00:29:43.478Z,19.73
2019-02-27T00:32:11.787Z,20.97
2019-02-27T00:34:39.989Z,17.67
2019-02-27T00:37:09.461Z,20.57
2019-02-27T00:39:37.528Z,18.48
2019-02-27T00:42:05.626Z,19.02
2019-02-27T00:44:34.961Z,16.42
2019-02-27T00:47:03.040Z,15.05
2019-02-27T00:49:32.354Z,19.35
2019-02-27T00:52:01.045Z,20.30
2019-02-27T00:54:31.449Z,21.42
2019-02-27T00:57:08.000Z,20.43
2019-02-27T00:59:36.675Z,18.42
2019-02-27T01:02:04.997Z,13.88
2019-02-27T01:04:35.116Z,16.25
2019-02-27T01:07:04.230Z,17.80
2019-02-27T01:09:32.458Z,18.62
2019-02-27T01:12:00.912Z,13.40
2019-02-27T01:14:29.198Z,16.80
2019-02-27T01:16:57.355Z,13.15
2019-02-27T01:19:25.421Z,15.23
2019-02-27T01:21:53.461Z,11.55
2019-02-27T01:24:21.451Z,10.95
2019-02-27T01:26:49.596Z,16.02
2019-02-27T01:29:18.133Z,14.35
2019-02-27T01:31:47.386Z,15.55
2019-02-27T01:34:15.578Z,13.03
2019-02-27T01:36:44.666Z,12.68
2019-02-27T01:39:12.918Z,13.48
2019-02-27T01:41:41.112Z,12.65
2019-02-27T01:44:11.157Z,13.15
2019-02-27T01:46:39.387Z,12.58
2019-02-27T01:49:07.395Z,13.10
2019-02-27T01:51:35.386Z,15.75
2019-02-27T01:54:03.830Z,12.82
2019-02-27T01:56:32.010Z,13.32
2019-02-27T01:59:00.379Z,14.33
2019-02-27T02:01:30.288Z,13.15
2019-02-27T02:03:58.774Z,13.72
2019-02-27T02:06:26.755Z,16.17
2019-02-27T02:09:30.452Z,12.88
2019-02-27T02:11:58.858Z,10.45
2019-02-27T02:15:01.105Z,13.15
2019-02-27T02:18:41.392Z,11.00
2019-02-27T02:22:00.685Z,10.72
2019-02-27T02:25:34.146Z,14.33
2019-02-27T02:29:30.048Z,15.65
2019-02-27T02:32:57.095Z,11.68
2019-02-27T02:36:30.756Z,12.03
2019-02-27T02:39:35.971Z,13.63
2019-02-27T02:42:51.915Z,15.10
2019-02-27T02:45:39.340Z,15.68
2019-02-27T02:49:24.735Z,16.62
2019-02-27T02:52:44.347Z,14.15
2019-02-27T02:55:25.392Z,15.38
2019-02-27T02:58:37.492Z,18.45
2019-02-27T03:01:45.673Z,11.83
2019-02-27T03:05:01.132Z,13.03
2019-02-27T03:08:05.040Z,10.65
2019-02-27T03:11:36.335Z,13.48
2019-02-27T03:14:54.178Z,11.38
2019-02-27T03:18:15.334Z,14.03
2019-02-27T03:22:11.445Z,16.35
2019-02-27T03:25:55.670Z,15.30
2019-02-27T03:29:42.671Z,16.60
2019-02-27T03:32:43.197Z,15.58
2019-02-27T03:36:04.571Z,15.85
2019-02-27T03:39:48.345Z,14.10
2019-02-27T03:42:51.261Z,15.58
2019-02-27T03:45:36.857Z,14.78
2019-02-27T03:48:52.315Z,16.05
2019-02-27T03:52:20.660Z,14.65
2019-02-27T03:55:42.480Z,18.17
2019-02-27T03:58:33.389Z,17.98
2019-02-27T04:01:32.019Z,15.10
2019-02-27T04:04:51.123Z,18.98
2019-02-27T04:08:16.483Z,15.45
2019-02-27T04:10:44.633Z,18.55
2019-02-27T04:13:12.586Z,15.15
2019-02-27T04:15:40.656Z,23.00
2019-02-27T04:18:07.088Z,22.55
2019-02-27T04:20:35.111Z,22.73
2019-02-27T04:23:03.201Z,18.48
2019-02-27T04:25:32.275Z,19.37
2019-02-27T04:28:00.294Z,16.42
2019-02-27T04:30:28.296Z,19.98
2019-02-27T04:32:56.244Z,13.95
2019-02-27T04:35:24.165Z,15.25
2019-02-27T04:37:54.310Z,18.02
2019-02-27T04:40:22.107Z,17.82
2019-02-27T04:42:50.054Z,15.80
2019-02-27T04:45:18.175Z,16.90
2019-02-27T04:47:46.148Z,20.08
2019-02-27T04:50:14.290Z,17.65
2019-02-27T04:52:42.208Z,19.85
2019-02-27T04:55:10.211Z,14.50
2019-02-27T04:57:38.081Z,16.73
2019-02-27T05:00:06.994Z,22.62
2019-02-27T05:02:35.220Z,15.15
2019-02-27T05:05:06.193Z,16.85
2019-02-27T05:07:33.361Z,12.98
2019-02-27T05:10:01.384Z,16.82
2019-02-27T05:12:29.371Z,16.15
2019-02-27T05:14:57.363Z,21.68
2019-02-27T05:17:25.288Z,18.75
2019-02-27T05:19:53.246Z,16.85
2019-02-27T05:22:21.261Z,15.70
2019-02-27T05:24:49.320Z,19.12
2019-02-27T05:27:17.301Z,16.55
2019-02-27T05:29:45.162Z,18.65
2019-02-27T05:32:13.365Z,14.18
2019-02-27T05:34:41.299Z,15.03
2019-02-27T05:37:12.847Z,17.85
2019-02-27T05:39:40.751Z,17.35
2019-02-27T05:42:08.767Z,20.08
2019-02-27T05:44:36.664Z,18.48
2019-02-27T05:47:04.620Z,23.92
2019-02-27T05:49:32.572Z,19.85
2019-02-27T05:52:00.430Z,18.40
2019-02-27T05:54:30.020Z,19.42
2019-02-27T05:57:00.171Z,17.80
2019-02-27T05:59:29.460Z,17.57
2019-02-27T06:01:57.833Z,18.67
2019-02-27T06:04:25.894Z,38.53
2019-02-27T06:06:53.905Z,34.88
2019-02-27T06:09:22.022Z,56.15
2019-02-27T06:11:49.931Z,37.63
2019-02-27T06:14:21.167Z,22.15
2019-02-27T06:16:47.839Z,21.57
2019-02-27T06:19:15.965Z,25.27
2019-02-27T06:21:43.855Z,27.58
2019-02-27T06:24:12.819Z,27.90
2019-02-27T06:26:40.841Z,32.48
2019-02-27T06:29:08.705Z,38.40
2019-02-27T06:31:39.320Z,32.65
2019-02-27T06:34:06.879Z,31.12
2019-02-27T06:36:34.752Z,28.67
2019-02-27T06:39:03.460Z,29.18
2019-02-27T06:41:33.314Z,32.63
2019-02-27T06:44:01.490Z,31.37
2019-02-27T06:46:30.067Z,35.03
2019-02-27T06:48:58.143Z,30.72
2019-02-27T06:51:26.296Z,29.60
2019-02-27T06:53:54.434Z,26.25
2019-02-27T06:56:22.344Z,27.27
2019-02-27T06:58:50.744Z,25.77
2019-02-27T07:01:19.640Z,27.10
2019-02-27T07:03:47.637Z,28.30
2019-02-27T07:06:15.603Z,21.87
2019-02-27T07:08:43.605Z,24.25
2019-02-27T07:11:11.641Z,20.92
2019-02-27T07:13:39.834Z,23.65
2019-02-27T07:16:08.583Z,24.35
2019-02-27T07:18:41.763Z,35.75
2019-02-27T07:21:09.798Z,26.85
2019-02-27T07:23:37.968Z,23.90
2019-02-27T07:26:06.051Z,22.25
2019-02-27T07:28:34.280Z,22.30
2019-02-27T07:31:02.478Z,15.50
2019-02-27T07:33:30.651Z,19.73
2019-02-27T07:36:03.171Z,19.82
2019-02-27T07:38:29.356Z,16.42
2019-02-27T07:40:57.627Z,14.03
2019-02-27T07:43:25.617Z,14.00
2019-02-27T07:45:54.438Z,14.78
2019-02-27T07:48:22.529Z,23.15
2019-02-27T07:50:50.712Z,21.30
2019-02-27T07:53:18.674Z,19.00
2019-02-27T07:55:47.481Z,18.90
2019-02-27T07:58:15.880Z,14.05
2019-02-27T08:00:44.030Z,16.77
2019-02-27T08:03:13.124Z,18.62
2019-02-27T08:05:42.195Z,15.43
2019-02-27T08:08:11.133Z,17.25
2019-02-27T08:10:41.192Z,13.50
2019-02-27T08:13:11.818Z,12.33
2019-02-27T08:15:40.300Z,19.30
2019-02-27T08:18:09.632Z,19.07
2019-02-27T08:20:37.699Z,11.55
2019-02-27T08:23:06.961Z,12.55
2019-02-27T08:25:38.052Z,10.85
2019-02-27T08:28:06.349Z,19.07
2019-02-27T08:30:34.789Z,13.25
2019-02-27T08:33:03.201Z,15.38
2019-02-27T08:35:32.181Z,15.95
2019-02-27T08:38:02.745Z,17.45
2019-02-27T08:40:30.891Z,17.25
2019-02-27T08:42:58.955Z,19.90
2019-02-27T08:45:27.697Z,14.05
2019-02-27T08:47:55.950Z,15.98
2019-02-27T08:50:24.111Z,18.82
2019-02-27T08:52:52.319Z,18.45
2019-02-27T08:55:22.824Z,17.25
2019-02-27T08:57:55.879Z,12.40
2019-02-27T09:00:23.399Z,11.43
2019-02-27T09:02:52.039Z,11.30
2019-02-27T09:05:20.983Z,9.75
2019-02-27T09:07:50.028Z,11.38
2019-02-27T09:10:19.348Z,10.95
2019-02-27T09:12:49.080Z,11.80
2019-02-27T09:15:18.167Z,11.40
2019-02-27T09:17:46.278Z,11.85
2019-02-27T09:20:19.244Z,12.73
2019-02-27T09:22:48.369Z,10.00
2019-02-27T09:25:16.754Z,9.45
2019-02-27T09:27:44.968Z,12.85
2019-02-27T09:30:15.276Z,13.10
2019-02-27T09:32:46.070Z,16.23
2019-02-27T09:35:16.839Z,12.45
2019-02-27T09:37:48.306Z,10.90
2019-02-27T09:40:17.465Z,14.40
2019-02-27T09:42:46.148Z,12.07
2019-02-27T09:45:29.143Z,11.73
2019-02-27T09:47:59.974Z,11.78
2019-02-27T09:50:34.613Z,14.83
2019-02-27T09:53:04.433Z,15.08
2019-02-27T09:55:33.128Z,12.98
2019-02-27T09:58:02.329Z,14.33
2019-02-27T10:00:52.886Z,10.40
2019-02-27T10:03:21.619Z,13.03
2019-02-27T10:05:50.093Z,11.03
2019-02-27T10:08:20.464Z,9.80
2019-02-27T10:10:49.015Z,13.53
2019-02-27T10:13:17.717Z,12.88
2019-02-27T10:15:46.060Z,12.80
2019-02-27T10:18:18.325Z,15.28
2019-02-27T10:20:45.795Z,11.78
2019-02-27T10:23:14.473Z,14.98
2019-02-27T10:25:43.589Z,15.47
2019-02-27T10:28:12.349Z,11.57
2019-02-27T10:30:40.463Z,12.50
2019-02-27T10:33:11.165Z,15.03
2019-02-27T10:35:38.588Z,16.87
2019-02-27T10:38:07.772Z,15.20
2019-02-27T10:40:36.411Z,12.40
2019-02-27T10:43:04.797Z,11.17
2019-02-27T10:45:33.085Z,16.47
2019-02-27T10:48:01.176Z,14.40
2019-02-27T10:50:29.299Z,13.30
2019-02-27T10:52:57.286Z,20.83
2019-02-27T10:55:26.846Z,13.90
2019-02-27T10:57:55.185Z,12.10
2019-02-27T11:00:28.586Z,14.47
2019-02-27T11:02:56.592Z,18.30
2019-02-27T11:05:25.182Z,16.00
2019-02-27T11:07:54.254Z,15.70
2019-02-27T11:10:23.417Z,18.70
2019-02-27T11:12:51.526Z,12.90
2019-02-27T11:15:19.774Z,17.80
2019-02-27T11:17:49.230Z,18.73
2019-02-27T11:20:20.845Z,22.13
2019-02-27T11:22:47.526Z,16.40
2019-02-27T11:25:22.343Z,16.23
2019-02-27T11:27:47.435Z,14.30
2019-02-27T11:30:22.519Z,21.00
2019-02-27T11:32:51.260Z,15.97
2019-02-27T11:35:22.062Z,13.37
2019-02-27T11:37:50.350Z,14.37
2019-02-27T11:40:20.238Z,15.27
2019-02-27T11:42:48.217Z,13.27
2019-02-27T11:45:16.092Z,13.97
2019-02-27T11:47:47.711Z,14.23
2019-02-27T11:50:14.684Z,22.37
2019-02-27T11:52:48.845Z,13.60
2019-02-27T11:55:15.575Z,11.10
2019-02-27T11:57:43.542Z,12.67
2019-02-27T12:00:20.227Z,14.23
2019-02-27T12:02:46.472Z,16.20
2019-02-27T12:05:15.124Z,12.70
2019-02-27T12:07:43.277Z,11.73
2019-02-27T12:10:15.134Z,12.53
2019-02-27T12:12:43.275Z,13.70
2019-02-27T12:15:12.907Z,13.20
2019-02-27T12:17:41.720Z,12.57
2019-02-27T12:20:10.362Z,13.17
2019-02-27T12:22:38.376Z,13.27
2019-02-27T12:25:07.333Z,12.50
2019-02-27T12:27:48.712Z,15.33
2019-02-27T12:30:11.041Z,16.17
2019-02-27T12:32:39.056Z,16.00
2019-02-27T12:35:11.480Z,13.47
2019-02-27T12:37:39.508Z,14.57
2019-02-27T12:40:10.079Z,12.13
2019-02-27T12:42:42.530Z,14.60
2019-02-27T12:45:12.268Z,12.83
2019-02-27T12:47:40.694Z,14.70
2019-02-27T12:50:11.520Z,17.60
2019-02-27T12:52:44.390Z,17.60
2019-02-27T12:55:09.628Z,16.30
2019-02-27T12:57:37.653Z,16.10
2019-02-27T13:00:09.024Z,23.23
2019-02-27T13:02:37.241Z,14.27
2019-02-27T13:05:06.718Z,18.13
2019-02-27T13:07:34.848Z,15.60
2019-02-27T13:10:04.232Z,14.73
2019-02-27T13:12:32.190Z,14.27
2019-02-27T13:15:00.358Z,14.47
2019-02-27T13:17:28.593Z,12.60
2019-02-27T13:19:56.519Z,13.30
2019-02-27T13:22:26.317Z,15.20
2019-02-27T13:24:54.408Z,13.80
2019-02-27T13:27:22.344Z,17.60
2019-02-27T13:29:52.198Z,9.80
2019-02-27T13:32:20.320Z,18.40
2019-02-27T13:34:49.090Z,12.83
2019-02-27T13:37:18.684Z,16.07
2019-02-27T13:39:46.771Z,14.60
2019-02-27T13:42:18.392Z,14.17
2019-02-27T13:44:44.740Z,15.63
2019-02-27T13:47:12.705Z,21.50
2019-02-27T13:49:40.848Z,19.33
2019-02-27T13:52:12.455Z,16.40
2019-02-27T13:54:38.972Z,17.37
2019-02-27T13:57:06.879Z,19.07
2019-02-27T13:59:35.884Z,16.00
2019-02-27T14:02:04.901Z,16.53
2019-02-27T14:04:32.902Z,14.40
2019-02-27T14:07:00.958Z,14.20
2019-02-27T14:09:29.021Z,14.00
2019-02-27T14:11:58.737Z,13.87
2019-02-27T14:14:27.230Z,18.63
2019-02-27T14:16:55.239Z,20.20
2019-02-27T14:19:23.873Z,18.57
2019-02-27T14:21:52.569Z,13.50
2019-02-27T14:24:21.359Z,16.10
2019-02-27T14:26:49.374Z,15.33
2019-02-27T14:29:17.285Z,16.53
2019-02-27T14:31:45.279Z,14.20
2019-02-27T14:34:13.290Z,15.20
2019-02-27T14:36:42.492Z,16.97
2019-02-27T14:39:13.139Z,13.23
2019-02-27T14:41:41.177Z,14.60
2019-02-27T14:44:09.443Z,15.60
2019-02-27T14:46:37.403Z,14.93
2019-02-27T14:49:05.381Z,12.17
2019-02-27T14:51:33.465Z,13.87
2019-02-27T14:54:01.584Z,11.80
2019-02-27T14:56:29.696Z,16.17
2019-02-27T14:58:57.643Z,15.10
2019-02-27T15:01:26.988Z,15.63
2019-02-27T15:03:55.241Z,15.10
2019-02-27T15:06:23.181Z,12.30
2019-02-27T15:08:57.735Z,13.93
2019-02-27T15:11:21.159Z,19.93
2019-02-27T15:13:49.276Z,15.03
2019-02-27T15:16:17.370Z,10.87
2019-02-27T15:18:45.373Z,14.67
2019-02-27T15:21:13.812Z,10.37
2019-02-27T15:23:42.039Z,11.20
2019-02-27T15:26:13.888Z,9.83
2019-02-27T15:28:41.692Z,8.60
2019-02-27T15:31:09.765Z,9.43
2019-02-27T15:33:39.062Z,8.00
2019-02-27T15:36:08.294Z,12.73
2019-02-27T15:38:37.567Z,10.50
2019-02-27T15:41:05.891Z,7.43
2019-02-27T15:43:34.153Z,6.93
2019-02-27T15:46:02.304Z,8.50
2019-02-27T15:48:30.388Z,9.97
2019-02-27T15:50:58.577Z,9.87
2019-02-27T15:53:26.575Z,11.73
2019-02-27T15:55:54.620Z,7.43
2019-02-27T15:58:25.334Z,10.83
2019-02-27T16:00:53.428Z,6.10
2019-02-27T16:03:22.944Z,7.40
2019-02-27T16:05:51.020Z,10.40
2019-02-27T16:08:20.275Z,8.57
2019-02-27T16:10:54.762Z,9.50
2019-02-27T16:13:19.119Z,7.80
2019-02-27T16:15:48.475Z,8.07
2019-02-27T16:18:16.923Z,6.67
2019-02-27T16:20:47.109Z,8.10
2019-02-27T16:23:15.106Z,7.87
2019-02-27T16:25:43.370Z,7.37
2019-02-27T16:28:14.103Z,8.20
2019-02-27T16:30:43.099Z,8.60
2019-02-27T16:33:11.174Z,9.13
2019-02-27T16:35:41.996Z,8.50
2019-02-27T16:38:09.702Z,7.90
2019-02-27T16:40:38.398Z,8.83
2019-02-27T16:43:06.630Z,8.73
2019-02-27T16:45:37.022Z,7.07
2019-02-27T16:48:05.613Z,7.43
2019-02-27T16:50:35.223Z,9.23
2019-02-27T16:53:03.284Z,8.73
2019-02-27T16:55:35.711Z,10.43
2019-02-27T16:58:02.024Z,10.50
2019-02-27T17:00:30.503Z,11.40
2019-02-27T17:02:58.719Z,20.00
2019-02-27T17:05:27.054Z,8.80
2019-02-27T17:08:00.690Z,10.13
2019-02-27T17:10:29.570Z,9.10
2019-02-27T17:12:57.928Z,26.93
2019-02-27T17:15:25.995Z,27.30
2019-02-27T17:17:54.314Z,17.83
2019-02-27T17:20:24.081Z,10.43
2019-02-27T17:22:52.469Z,13.23
2019-02-27T17:25:20.729Z,12.47
2019-02-27T17:27:50.887Z,12.97
2019-02-27T17:30:24.525Z,13.50
2019-02-27T17:32:52.903Z,12.70
2019-02-27T17:35:23.575Z,12.40
2019-02-27T17:37:51.371Z,15.10
2019-02-27T17:40:19.372Z,24.50
2019-02-27T17:42:53.211Z,18.30
2019-02-27T17:45:18.427Z,16.97
2019-02-27T17:47:46.584Z,16.53
2019-02-27T17:50:15.182Z,10.90
2019-02-27T17:52:43.207Z,19.37
2019-02-27T17:55:12.910Z,14.10
2019-02-27T17:57:40.977Z,16.37
2019-02-27T18:00:16.011Z,22.47
2019-02-27T18:02:43.685Z,13.23
2019-02-27T18:05:11.997Z,18.27
2019-02-27T18:07:40.251Z,25.43
2019-02-27T18:10:10.058Z,20.50
2019-02-27T18:12:38.330Z,16.57
2019-02-27T18:15:08.558Z,22.23
2019-02-27T18:17:36.904Z,20.77
2019-02-27T18:20:05.722Z,23.37
2019-02-27T18:22:34.046Z,16.50
2019-02-27T18:25:04.756Z,13.43
2019-02-27T18:27:32.186Z,18.23
2019-02-27T18:30:00.473Z,20.10
2019-02-27T18:32:28.728Z,25.05
2019-02-27T18:34:56.742Z,16.23
2019-02-27T18:37:24.905Z,24.12
2019-02-27T18:39:53.266Z,18.53
2019-02-27T18:42:21.387Z,16.40
2019-02-27T18:44:50.098Z,14.73
2019-02-27T18:47:18.124Z,17.67
2019-02-27T18:49:46.239Z,15.97
2019-02-27T18:52:21.404Z,13.40
2019-02-27T18:54:46.281Z,16.00
2019-02-27T18:57:14.477Z,19.93
2019-02-27T18:59:42.626Z,24.47
2019-02-27T19:02:10.716Z,23.98
2019-02-27T19:04:38.908Z,21.10
2019-02-27T19:07:08.030Z,18.60
2019-02-27T19:09:36.277Z,18.77
2019-02-27T19:12:04.772Z,17.70
2019-02-27T19:14:33.220Z,21.17
2019-02-27T19:17:01.486Z,22.10
2019-02-27T19:19:29.757Z,26.02
2019-02-27T19:21:58.097Z,22.17
2019-02-27T19:24:27.523Z,27.30
2019-02-27T19:26:56.005Z,19.42
2019-02-27T19:29:24.049Z,21.55
2019-02-27T19:31:52.242Z,20.27
2019-02-27T19:34:21.367Z,14.98
2019-02-27T19:36:49.610Z,27.73
2019-02-27T19:39:18.334Z,19.62
2019-02-27T19:41:48.121Z,23.27
2019-02-27T19:44:16.360Z,25.70
2019-02-27T19:46:47.453Z,18.98
2019-02-27T19:49:15.125Z,24.87
2019-02-27T19:51:45.089Z,22.00
2019-02-27T19:54:14.854Z,21.70
2019-02-27T19:56:43.480Z,21.15
2019-02-27T19:59:11.525Z,27.15
2019-02-27T20:01:46.257Z,27.02
2019-02-27T20:04:12.780Z,28.45
2019-02-27T20:06:42.149Z,24.63
2019-02-27T20:09:10.526Z,19.57
2019-02-27T20:11:41.033Z,25.55
2019-02-27T20:14:11.777Z,20.30
2019-02-27T20:16:41.202Z,19.12
2019-02-27T20:19:09.568Z,26.05
2019-02-27T20:21:44.111Z,33.10
2019-02-27T20:24:14.463Z,25.02
2019-02-27T20:26:44.534Z,21.60
2019-02-27T20:29:13.514Z,30.68
2019-02-27T20:31:41.664Z,26.68
2019-02-27T20:34:11.577Z,18.60
2019-02-27T20:36:40.998Z,29.25
2019-02-27T20:39:10.088Z,33.67
2019-02-27T20:41:43.907Z,32.33
2019-02-27T20:44:13.978Z,34.38
2019-02-27T20:46:42.081Z,30.80
2019-02-27T20:49:14.031Z,33.08
2019-02-27T20:51:43.443Z,32.95
2019-02-27T20:54:11.914Z,24.35
2019-02-27T20:56:40.818Z,29.72
2019-02-27T20:59:12.258Z,28.10
2019-02-27T21:01:46.681Z,29.98
2019-02-27T21:04:11.710Z,25.52
2019-02-27T21:06:40.785Z,28.10
2019-02-27T21:09:11.782Z,25.68
2019-02-27T21:11:40.099Z,28.57
2019-02-27T21:14:09.197Z,20.12
2019-02-27T21:16:40.196Z,34.08
2019-02-27T21:19:09.751Z,41.30
2019-02-27T21:21:38.338Z,27.55
2019-02-27T21:24:06.762Z,30.32
2019-02-27T21:26:38.000Z,25.40
2019-02-27T21:29:08.614Z,19.50
2019-02-27T21:31:36.496Z,23.90
2019-02-27T21:34:04.934Z,20.70
2019-02-27T21:36:36.245Z,19.90
2019-02-27T21:39:04.786Z,21.55
2019-02-27T21:41:34.865Z,20.00
2019-02-27T21:44:06.497Z,20.20
2019-02-27T21:46:34.715Z,21.02
2019-02-27T21:49:02.961Z,19.20
2019-02-27T21:51:31.650Z,21.57
2019-02-27T21:54:00.357Z,27.73
2019-02-27T21:56:30.189Z,27.02
2019-02-27T21:58:58.664Z,23.47
2019-02-27T22:01:26.791Z,25.82
2019-02-27T22:03:55.206Z,24.12
2019-02-27T22:06:24.745Z,27.77
2019-02-27T22:08:53.287Z,26.77
2019-02-27T22:11:24.209Z,26.77
2019-02-27T22:13:52.017Z,28.45
2019-02-27T22:16:20.131Z,19.62
2019-02-27T22:18:48.159Z,24.50
2019-02-27T22:21:17.276Z,30.02
2019-02-27T22:23:45.997Z,25.43
2019-02-27T22:26:14.423Z,22.85
2019-02-27T22:28:42.581Z,25.55
2019-02-27T22:31:10.810Z,23.55
2019-02-27T22:33:38.882Z,25.80
2019-02-27T22:36:12.355Z,19.95
2019-02-27T22:38:36.975Z,23.32
2019-02-27T22:41:05.142Z,19.00
2019-02-27T22:43:35.155Z,27.00
2019-02-27T22:46:03.321Z,28.70
2019-02-27T22:48:32.356Z,24.92
2019-02-27T22:51:00.534Z,25.77
2019-02-27T22:53:28.915Z,24.37
2019-02-27T22:55:57.826Z,24.43
2019-02-27T22:58:27.432Z,24.18
2019-02-27T23:01:10.174Z,28.87
2019-02-27T23:03:59.861Z,23.50
2019-02-27T23:06:28.071Z,23.87
2019-02-27T23:09:00.160Z,23.70
2019-02-27T23:11:28.479Z,30.02
2019-02-27T23:13:56.621Z,26.37
2019-02-27T23:16:24.547Z,21.90
2019-02-27T23:18:52.693Z,20.15
2019-02-27T23:21:20.785Z,23.32
2019-02-27T23:23:48.931Z,25.68
2019-02-27T23:26:19.818Z,25.02
2019-02-27T23:28:48.859Z,22.22
2019-02-27T23:31:22.384Z,27.13
2019-02-27T23:33:48.259Z,20.90
2019-02-27T23:36:16.468Z,30.62
2019-02-27T23:38:45.256Z,20.20
2019-02-27T23:41:14.250Z,26.70
2019-02-27T23:43:42.168Z,23.52
2019-02-27T23:46:10.273Z,20.40
2019-02-27T23:48:41.569Z,20.45
2019-02-27T23:51:09.569Z,23.62
2019-02-27T23:53:37.594Z,25.17
2019-02-27T23:56:05.669Z,21.87
2019-02-27T23:58:35.626Z,21.45
